createdAt,value
2023-03-02T00:01:10.124Z,101750.16
2023-03-02T00:03:39.054Z,101754.84
2023-03-02T00:06:06.560Z,101747.97
2023-03-02T00:08:33.947Z,101741.91
2023-03-02T00:11:01.259Z,101746.91
2023-03-02T00:13:30.161Z,101750.22
2023-03-02T00:15:56.580Z,101751.34
2023-03-02T00:18:23.249Z,101741.66
2023-03-02T00:20:49.584Z,101743.59
2023-03-02T00:23:15.978Z,101737.56
2023-03-02T00:25:42.825Z,101741.44
2023-03-02T00:28:09.207Z,101736.19
2023-03-02T00:30:37.320Z,101746.41
2023-03-02T00:33:03.746Z,101748.34
2023-03-02T00:35:30.314Z,101747.81
2023-03-02T00:37:56.918Z,101753.59
2023-03-02T00:40:23.539Z,101745.09
2023-03-02T00:42:50.097Z,101747.84
2023-03-02T00:45:16.458Z,101747.28
2023-03-02T00:47:42.894Z,101746.75
2023-03-02T00:50:10.340Z,101744.56
2023-03-02T00:52:36.711Z,101745.97
2023-03-02T00:55:03.191Z,101742.09
2023-03-02T00:57:29.791Z,101750.94
2023-03-02T00:59:56.192Z,101751.78
2023-03-02T01:02:22.625Z,101749.63
2023-03-02T01:04:49.329Z,101742.19
2023-03-02T01:07:18.206Z,101746.31
2023-03-02T01:09:45.468Z,101751.31
2023-03-02T01:12:12.052Z,101739.69
2023-03-02T01:14:42.042Z,101744.94
2023-03-02T01:17:09.868Z,101736.16
2023-03-02T01:19:36.899Z,101732.03
2023-03-02T01:22:04.914Z,101735.34
2023-03-02T01:24:32.190Z,101735.63
2023-03-02T01:26:58.785Z,101733.97
2023-03-02T01:29:25.487Z,101736.19
2023-03-02T01:31:52.229Z,101738.13
2023-03-02T01:34:18.710Z,101732.59
2023-03-02T01:36:45.524Z,101730.66
2023-03-02T01:39:16.122Z,101731.50
2023-03-02T01:41:44.799Z,101737.00
2023-03-02T01:44:42.007Z,101729.28
2023-03-02T01:47:17.687Z,101725.44
2023-03-02T01:49:54.981Z,101719.09
2023-03-02T01:52:21.841Z,101724.63
2023-03-02T01:54:49.986Z,101722.41
2023-03-02T01:57:23.772Z,101712.75
2023-03-02T01:59:56.520Z,101714.97
2023-03-02T02:02:23.535Z,101719.66
2023-03-02T02:04:51.584Z,101723.25
2023-03-02T02:07:18.938Z,101711.69
2023-03-02T02:09:51.490Z,101711.13
2023-03-02T02:12:23.473Z,101708.38
2023-03-02T02:14:50.362Z,101714.44
2023-03-02T02:17:18.393Z,101707.53
2023-03-02T02:20:07.214Z,101705.06
2023-03-02T02:22:48.079Z,101703.69
2023-03-02T02:25:36.598Z,101705.59
2023-03-02T02:28:08.468Z,101697.63
2023-03-02T02:30:38.026Z,101697.06
2023-03-02T02:33:05.764Z,101695.41
2023-03-02T02:35:36.661Z,101692.13
2023-03-02T02:38:06.236Z,101691.84
2023-03-02T02:40:55.414Z,101693.81
2023-03-02T02:43:23.591Z,101690.22
2023-03-02T02:45:54.004Z,101686.91
2023-03-02T02:48:26.914Z,101681.69
2023-03-02T02:51:00.119Z,101684.72
2023-03-02T02:53:43.115Z,101679.22
2023-03-02T02:56:11.150Z,101679.22
2023-03-02T02:58:43.465Z,101675.91
2023-03-02T03:01:17.556Z,101681.44
2023-03-02T03:03:53.186Z,101688.03
2023-03-02T03:06:25.745Z,101683.66
2023-03-02T03:08:56.595Z,101685.84
2023-03-02T03:11:26.628Z,101681.44
2023-03-02T03:14:02.272Z,101678.97
2023-03-02T03:16:31.420Z,101677.56
2023-03-02T03:19:05.772Z,101683.38
2023-03-02T03:21:32.452Z,101683.91
2023-03-02T03:23:59.154Z,101682.00
2023-03-02T03:26:25.528Z,101673.16
2023-03-02T03:28:51.965Z,101676.75
2023-03-02T03:31:18.715Z,101671.53
2023-03-02T03:33:45.130Z,101665.72
2023-03-02T03:36:11.798Z,101664.06
2023-03-02T03:38:38.547Z,101668.75
2023-03-02T03:41:05.173Z,101664.06
2023-03-02T03:43:32.048Z,101670.41
2023-03-02T03:45:58.390Z,101670.69
2023-03-02T03:48:24.987Z,101668.22
2023-03-02T03:50:51.558Z,101676.50
2023-03-02T03:53:19.278Z,101681.16
2023-03-02T03:55:45.890Z,101675.13
2023-03-02T03:58:12.437Z,101676.75
2023-03-02T04:00:38.974Z,101676.50
2023-03-02T04:03:05.336Z,101685.31
2023-03-02T04:05:33.347Z,101691.63
2023-03-02T04:08:02.336Z,101693.03
2023-03-02T04:10:29.642Z,101683.91
2023-03-02T04:12:56.589Z,101689.16
2023-03-02T04:15:23.839Z,101693.28
2023-03-02T04:17:51.122Z,101685.81
2023-03-02T04:20:21.782Z,101689.69
2023-03-02T04:22:51.752Z,101687.50
2023-03-02T04:25:21.623Z,101691.91
2023-03-02T04:27:50.361Z,101685.56
2023-03-02T04:30:20.368Z,101684.75
2023-03-02T04:32:47.255Z,101680.59
2023-03-02T04:35:14.463Z,101683.63
2023-03-02T04:37:42.305Z,101685.56
2023-03-02T04:40:10.121Z,101686.38
2023-03-02T04:42:36.537Z,101683.34
2023-03-02T04:45:04.060Z,101685.28
2023-03-02T04:47:30.411Z,101689.16
2023-03-02T04:49:58.114Z,101688.31
2023-03-02T04:52:25.584Z,101693.53
2023-03-02T04:54:52.328Z,101691.06
2023-03-02T04:57:18.688Z,101688.56
2023-03-02T04:59:45.317Z,101686.13
2023-03-02T05:02:11.925Z,101682.53
2023-03-02T05:04:40.663Z,101683.66
2023-03-02T05:07:07.078Z,101687.22
2023-03-02T05:09:33.476Z,101684.75
2023-03-02T05:12:00.728Z,101684.47
2023-03-02T05:14:27.406Z,101685.59
2023-03-02T05:16:54.023Z,101682.25
2023-03-02T05:19:20.629Z,101677.84
2023-03-02T05:21:47.198Z,101680.63
2023-03-02T05:24:14.534Z,101672.63
2023-03-02T05:26:41.026Z,101674.56
2023-03-02T05:29:07.630Z,101676.75
2023-03-02T05:31:37.526Z,101676.22
2023-03-02T05:34:05.948Z,101670.16
2023-03-02T05:36:32.608Z,101671.25
2023-03-02T05:38:59.414Z,101669.31
2023-03-02T05:41:25.921Z,101668.78
2023-03-02T05:43:53.386Z,101664.66
2023-03-02T05:46:22.008Z,101661.91
2023-03-02T05:48:48.748Z,101671.28
2023-03-02T05:51:15.569Z,101667.69
2023-03-02T05:53:41.938Z,101672.09
2023-03-02T05:56:08.693Z,101668.50
2023-03-02T05:58:35.120Z,101674.03
2023-03-02T06:01:01.803Z,101671.56
2023-03-02T06:03:28.874Z,101667.97
2023-03-02T06:05:55.259Z,101683.94
2023-03-02T06:08:21.908Z,101684.78
2023-03-02T06:10:51.635Z,101684.25
2023-03-02T06:13:17.990Z,101682.31
2023-03-02T06:15:44.731Z,101677.31
2023-03-02T06:18:12.745Z,101674.31
2023-03-02T06:20:40.634Z,101672.09
2023-03-02T06:23:06.983Z,101672.66
2023-03-02T06:25:33.637Z,101680.34
2023-03-02T06:27:59.970Z,101690.00
2023-03-02T06:30:27.812Z,101683.38
2023-03-02T06:32:54.505Z,101686.66
2023-03-02T06:35:21.044Z,101694.69
2023-03-02T06:37:47.508Z,101683.91
2023-03-02T06:40:14.407Z,101698.25
2023-03-02T06:42:42.147Z,101702.66
2023-03-02T06:45:09.845Z,101699.91
2023-03-02T06:47:36.664Z,101702.13
2023-03-02T06:50:04.017Z,101705.97
2023-03-02T06:52:30.364Z,101709.56
2023-03-02T06:54:56.801Z,101709.28
2023-03-02T06:57:23.389Z,101705.69
2023-03-02T06:59:49.747Z,101717.25
2023-03-02T07:02:16.082Z,101709.81
2023-03-02T07:04:42.482Z,101701.53
2023-03-02T07:07:08.825Z,101705.69
2023-03-02T07:09:35.292Z,101715.31
2023-03-02T07:12:01.895Z,101707.59
2023-03-02T07:14:28.256Z,101707.31
2023-03-02T07:16:57.302Z,101707.88
2023-03-02T07:19:24.003Z,101705.38
2023-03-02T07:21:50.340Z,101713.09
2023-03-02T07:24:16.733Z,101713.63
2023-03-02T07:26:43.227Z,101712.25
2023-03-02T07:29:09.797Z,101708.91
2023-03-02T07:31:36.409Z,101705.91
2023-03-02T07:34:02.789Z,101703.41
2023-03-02T07:36:29.169Z,101709.16
2023-03-02T07:38:55.561Z,101702.00
2023-03-02T07:41:22.977Z,101705.03
2023-03-02T07:43:49.337Z,101695.34
2023-03-02T07:46:16.181Z,101699.75
2023-03-02T07:48:42.628Z,101699.16
2023-03-02T07:51:08.983Z,101703.00
2023-03-02T07:53:35.618Z,101707.69
2023-03-02T07:56:10.006Z,101709.06
2023-03-02T07:58:36.753Z,101708.22
2023-03-02T08:01:03.810Z,101709.00
2023-03-02T08:03:30.200Z,101715.63
2023-03-02T08:05:56.509Z,101716.69
2023-03-02T08:08:22.896Z,101715.81
2023-03-02T08:10:49.678Z,101715.78
2023-03-02T08:13:16.078Z,101712.19
2023-03-02T08:15:42.621Z,101713.81
2023-03-02T08:18:09.299Z,101709.09
2023-03-02T08:20:35.651Z,101704.06
2023-03-02T08:23:02.274Z,101703.19
2023-03-02T08:25:29.061Z,101713.38
2023-03-02T08:27:55.456Z,101703.41
2023-03-02T08:30:21.851Z,101709.72
2023-03-02T08:32:48.326Z,101703.34
2023-03-02T08:35:14.919Z,101710.47
2023-03-02T08:37:41.294Z,101714.91
2023-03-02T08:40:08.354Z,101717.31
2023-03-02T08:42:34.676Z,101704.56
2023-03-02T08:45:01.046Z,101707.28
2023-03-02T08:47:28.464Z,101701.41
2023-03-02T08:49:55.018Z,101702.47
2023-03-02T08:52:21.709Z,101699.16
2023-03-02T08:54:48.335Z,101686.91
2023-03-02T08:57:14.811Z,101683.28
2023-03-02T08:59:41.448Z,101683.22
2023-03-02T09:02:10.568Z,101677.63
2023-03-02T09:04:37.099Z,101681.75
2023-03-02T09:07:04.577Z,101669.53
2023-03-02T09:09:30.907Z,101663.94
2023-03-02T09:11:57.331Z,101671.88
2023-03-02T09:14:24.810Z,101665.69
2023-03-02T09:16:52.710Z,101668.91
2023-03-02T09:19:19.230Z,101664.38
2023-03-02T09:21:45.909Z,101671.19
2023-03-02T09:24:12.338Z,101667.78
2023-03-02T09:26:39.059Z,101652.97
2023-03-02T09:29:07.057Z,101663.34
2023-03-02T09:31:34.878Z,101664.34
2023-03-02T09:34:01.622Z,101656.69
2023-03-02T09:36:28.483Z,101664.34
2023-03-02T09:38:55.493Z,101653.41
2023-03-02T09:41:41.437Z,101660.19
2023-03-02T09:44:34.775Z,101662.00
2023-03-02T09:47:04.754Z,101663.50
2023-03-02T09:49:49.308Z,101666.69
2023-03-02T09:52:34.447Z,101665.69
2023-03-02T09:55:14.812Z,101664.50
2023-03-02T09:57:41.395Z,101666.53
2023-03-02T10:00:19.460Z,101665.34
2023-03-02T10:02:51.009Z,101666.88
2023-03-02T10:05:22.852Z,101668.19
2023-03-02T10:07:49.596Z,101662.28
2023-03-02T10:10:25.820Z,101667.19
2023-03-02T10:13:19.748Z,101664.63
2023-03-02T10:15:52.062Z,101667.00
2023-03-02T10:18:24.282Z,101665.78
2023-03-02T10:21:00.042Z,101657.63
2023-03-02T10:24:09.720Z,101656.44
2023-03-02T10:26:40.440Z,101651.25
2023-03-02T10:29:28.777Z,101651.47
2023-03-02T10:32:07.705Z,101642.09
2023-03-02T10:34:37.879Z,101659.69
2023-03-02T10:37:13.879Z,101664.91
2023-03-02T10:39:40.502Z,101655.34
2023-03-02T10:42:14.082Z,101650.31
2023-03-02T10:44:44.439Z,101659.34
2023-03-02T10:47:21.045Z,101655.09
2023-03-02T10:49:48.490Z,101659.94
2023-03-02T10:52:20.378Z,101657.34
2023-03-02T10:54:49.974Z,101659.44
2023-03-02T10:58:04.364Z,101644.28
2023-03-02T11:00:33.364Z,101650.72
2023-03-02T11:03:04.396Z,101651.41
2023-03-02T11:05:40.310Z,101650.16
2023-03-02T11:08:26.478Z,101640.53
2023-03-02T11:11:00.011Z,101642.91
2023-03-02T11:13:36.980Z,101637.81
2023-03-02T11:16:31.820Z,101648.53
2023-03-02T11:19:16.096Z,101648.06
2023-03-02T11:22:21.343Z,101654.66
2023-03-02T11:24:57.702Z,101648.31
2023-03-02T11:27:29.823Z,101643.44
2023-03-02T11:30:18.453Z,101633.31
2023-03-02T11:33:04.765Z,101643.16
2023-03-02T11:35:35.319Z,101641.53
2023-03-02T11:38:28.400Z,101639.59
2023-03-02T11:41:07.958Z,101627.03
2023-03-02T11:43:34.409Z,101629.03
2023-03-02T11:46:21.185Z,101621.69
2023-03-02T11:48:53.079Z,101615.31
2023-03-02T11:51:25.373Z,101627.13
2023-03-02T11:53:59.184Z,101608.81
2023-03-02T11:56:37.259Z,101610.34
2023-03-02T11:59:12.542Z,101607.91
2023-03-02T12:01:40.540Z,101596.28
2023-03-02T12:04:26.491Z,101602.50
2023-03-02T12:06:53.709Z,101590.03
2023-03-02T12:09:23.211Z,101586.63
2023-03-02T12:12:23.739Z,101583.19
2023-03-02T12:14:50.322Z,101593.50
2023-03-02T12:17:19.337Z,101587.28
2023-03-02T12:19:47.328Z,101586.78
2023-03-02T12:22:24.922Z,101577.44
2023-03-02T12:25:19.148Z,101579.22
2023-03-02T12:27:48.688Z,101573.19
2023-03-02T12:30:15.524Z,101564.13
2023-03-02T12:32:45.215Z,101568.25
2023-03-02T12:35:17.763Z,101567.56
2023-03-02T12:38:05.929Z,101554.59
2023-03-02T12:40:59.191Z,101561.97
2023-03-02T12:43:30.770Z,101557.84
2023-03-02T12:46:37.080Z,101550.00
2023-03-02T12:49:31.397Z,101554.88
2023-03-02T12:52:01.914Z,101561.13
2023-03-02T12:54:31.627Z,101559.16
2023-03-02T12:57:13.981Z,101555.22
2023-03-02T12:59:40.625Z,101543.88
2023-03-02T13:02:36.993Z,101546.31
2023-03-02T13:05:08.764Z,101543.34
2023-03-02T13:07:41.400Z,101531.53
2023-03-02T13:10:36.061Z,101527.28
2023-03-02T13:13:15.474Z,101519.22
2023-03-02T13:18:53.793Z,101508.34
2023-03-02T13:21:21.909Z,101516.88
2023-03-02T13:23:51.736Z,101511.44
2023-03-02T13:26:35.798Z,101505.84
2023-03-02T13:29:32.370Z,101506.81
2023-03-02T13:32:15.703Z,101506.00
2023-03-02T13:34:50.008Z,101502.53
2023-03-02T13:37:23.068Z,101499.72
2023-03-02T13:39:57.540Z,101495.81
2023-03-02T13:42:39.275Z,101500.34
2023-03-02T13:45:24.053Z,101502.81
2023-03-02T13:47:51.369Z,101497.41
2023-03-02T13:50:25.254Z,101497.88
2023-03-02T13:52:55.149Z,101495.22
2023-03-02T13:55:26.622Z,101486.50
2023-03-02T13:57:54.468Z,101478.28
2023-03-02T14:00:29.170Z,101482.34
2023-03-02T14:02:56.958Z,101469.00
2023-03-02T14:05:32.949Z,101471.47
2023-03-02T14:08:03.186Z,101469.63
2023-03-02T14:10:29.614Z,101470.09
2023-03-02T14:13:03.886Z,101466.13
2023-03-02T14:15:30.482Z,101460.34
2023-03-02T14:17:57.156Z,101460.03
2023-03-02T14:20:23.784Z,101463.28
2023-03-02T14:22:50.720Z,101451.28
2023-03-02T14:25:17.648Z,101453.75
2023-03-02T14:27:44.169Z,101451.44
2023-03-02T14:30:21.558Z,101457.34
2023-03-02T14:32:49.647Z,101449.91
2023-03-02T14:35:16.536Z,101449.91
2023-03-02T14:37:47.186Z,101456.69
2023-03-02T14:40:18.865Z,101445.16
2023-03-02T14:42:45.500Z,101444.81
2023-03-02T14:45:12.451Z,101442.50
2023-03-02T14:47:38.840Z,101435.75
2023-03-02T14:50:06.234Z,101441.81
2023-03-02T14:52:41.787Z,101444.63
2023-03-02T14:55:19.325Z,101445.88
2023-03-02T14:57:50.283Z,101443.25
2023-03-02T15:00:18.145Z,101436.03
2023-03-02T15:02:44.865Z,101445.22
2023-03-02T15:05:11.468Z,101441.94
2023-03-02T15:07:38.909Z,101441.13
2023-03-02T15:10:06.014Z,101437.50
2023-03-02T15:12:32.439Z,101434.25
2023-03-02T15:15:00.416Z,101434.94
2023-03-02T15:17:27.711Z,101440.06
2023-03-02T15:19:54.156Z,101441.19
2023-03-02T15:22:20.782Z,101438.41
2023-03-02T15:24:48.395Z,101433.50
2023-03-02T15:27:15.665Z,101424.63
2023-03-02T15:29:48.202Z,101430.94
2023-03-02T15:32:15.027Z,101427.63
2023-03-02T15:34:42.673Z,101427.19
2023-03-02T15:37:13.540Z,101429.81
2023-03-02T15:39:40.287Z,101424.59
2023-03-02T15:42:07.010Z,101424.44
2023-03-02T15:44:33.685Z,101420.38
2023-03-02T15:47:01.668Z,101425.81
2023-03-02T15:49:29.358Z,101426.50
2023-03-02T15:51:57.724Z,101430.44
2023-03-02T15:54:27.340Z,101433.91
2023-03-02T15:56:54.041Z,101441.00
2023-03-02T15:59:22.517Z,101436.09
2023-03-02T16:01:49.704Z,101440.41
2023-03-02T16:04:16.332Z,101444.19
2023-03-02T16:06:43.528Z,101441.25
2023-03-02T16:09:10.368Z,101444.25
2023-03-02T16:11:38.194Z,101438.53
2023-03-02T16:14:04.888Z,101436.44
2023-03-02T16:16:31.483Z,101451.03
2023-03-02T16:18:59.477Z,101442.06
2023-03-02T16:21:30.880Z,101444.03
2023-03-02T16:24:05.056Z,101448.28
2023-03-02T16:26:35.563Z,101447.34
2023-03-02T16:29:02.582Z,101449.16
2023-03-02T16:31:33.271Z,101453.41
2023-03-02T16:34:07.531Z,101456.06
2023-03-02T16:36:39.450Z,101451.47
2023-03-02T16:39:08.884Z,101457.25
2023-03-02T16:41:38.900Z,101453.81
2023-03-02T16:44:08.721Z,101459.59
2023-03-02T16:46:39.485Z,101450.44
2023-03-02T16:49:06.732Z,101455.72
2023-03-02T16:51:34.414Z,101469.34
2023-03-02T16:54:09.543Z,101469.38
2023-03-02T16:56:38.008Z,101472.50
2023-03-02T16:59:04.485Z,101474.19
2023-03-02T17:01:31.920Z,101485.66
2023-03-02T17:04:01.211Z,101484.03
2023-03-02T17:06:30.319Z,101490.75
2023-03-02T17:08:57.910Z,101489.59
2023-03-02T17:11:25.844Z,101486.50
2023-03-02T17:13:52.333Z,101490.41
2023-03-02T17:16:20.691Z,101491.53
2023-03-02T17:18:48.662Z,101499.03
2023-03-02T17:21:17.359Z,101499.31
2023-03-02T17:23:45.875Z,101493.25
2023-03-02T17:26:12.109Z,101504.34
2023-03-02T17:28:40.190Z,101512.69
2023-03-02T17:31:08.854Z,101508.53
2023-03-02T17:33:37.352Z,101520.28
2023-03-02T17:36:08.526Z,101529.22
2023-03-02T17:38:36.393Z,101522.81
2023-03-02T17:41:05.044Z,101536.97
2023-03-02T17:43:37.168Z,101534.75
2023-03-02T17:46:22.677Z,101542.22
2023-03-02T17:48:53.926Z,101541.50
2023-03-02T17:51:24.634Z,101547.50
2023-03-02T17:53:58.254Z,101543.19
2023-03-02T17:56:27.352Z,101546.41
2023-03-02T17:58:57.901Z,101556.81
2023-03-02T18:01:24.841Z,101553.34
2023-03-02T18:03:51.739Z,101554.28
2023-03-02T18:06:20.548Z,101575.47
2023-03-02T18:08:59.649Z,101574.78
2023-03-02T18:11:26.831Z,101579.63
2023-03-02T18:13:54.932Z,101584.44
2023-03-02T18:16:26.343Z,101586.50
2023-03-02T18:18:54.131Z,101587.44
2023-03-02T18:21:27.736Z,101589.81
2023-03-02T18:23:56.017Z,101595.75
2023-03-02T18:26:22.519Z,101603.38
2023-03-02T18:28:48.892Z,101597.44
2023-03-02T18:31:21.190Z,101607.00
2023-03-02T18:33:54.128Z,101608.72
2023-03-02T18:36:23.146Z,101620.75
2023-03-02T18:38:52.963Z,101611.38
2023-03-02T18:41:24.066Z,101620.31
2023-03-02T18:43:51.294Z,101633.97
2023-03-02T18:46:26.751Z,101631.91
2023-03-02T18:48:54.734Z,101633.31
2023-03-02T18:51:27.252Z,101634.56
2023-03-02T18:53:55.064Z,101639.06
2023-03-02T18:59:05.975Z,101636.78
2023-03-02T19:01:36.632Z,101645.13
2023-03-02T19:04:03.497Z,101649.09
2023-03-02T19:06:29.932Z,101645.31
2023-03-02T19:08:59.035Z,101642.63
2023-03-02T19:11:26.621Z,101636.63
2023-03-02T19:13:56.277Z,101641.44
2023-03-02T19:16:22.772Z,101637.38
2023-03-02T19:18:49.968Z,101645.25
2023-03-02T19:21:22.274Z,101644.78
2023-03-02T19:23:48.648Z,101651.53
2023-03-02T19:26:15.628Z,101644.13
2023-03-02T19:28:44.321Z,101652.81
2023-03-02T19:31:11.954Z,101654.53
2023-03-02T19:33:42.274Z,101660.94
2023-03-02T19:36:09.890Z,101660.44
2023-03-02T19:38:42.350Z,101666.25
2023-03-02T19:41:19.657Z,101668.56
2023-03-02T19:43:47.403Z,101669.97
2023-03-02T19:46:16.111Z,101675.56
2023-03-02T19:48:44.873Z,101670.09
2023-03-02T19:51:13.092Z,101674.56
2023-03-02T19:53:43.094Z,101675.44
2023-03-02T19:56:14.534Z,101678.28
2023-03-02T19:58:49.784Z,101677.22
2023-03-02T20:01:21.650Z,101678.94
2023-03-02T20:03:51.491Z,101680.88
2023-03-02T20:06:19.049Z,101676.75
2023-03-02T20:08:47.965Z,101682.28
2023-03-02T20:11:15.683Z,101685.34
2023-03-02T20:13:42.257Z,101691.97
2023-03-02T20:16:14.696Z,101680.41
2023-03-02T20:18:42.220Z,101689.81
2023-03-02T20:21:09.725Z,101688.75
2023-03-02T20:23:36.593Z,101692.09
2023-03-02T20:26:08.521Z,101709.56
2023-03-02T20:28:36.735Z,101707.38
2023-03-02T20:31:08.898Z,101719.63
2023-03-02T20:33:42.197Z,101713.84
2023-03-02T20:36:10.188Z,101712.25
2023-03-02T20:38:41.234Z,101703.69
2023-03-02T20:41:09.926Z,101708.47
2023-03-02T20:43:36.572Z,101715.38
2023-03-02T20:46:06.527Z,101703.25
2023-03-02T20:48:35.341Z,101700.25
2023-03-02T20:51:03.374Z,101706.88
2023-03-02T20:53:30.352Z,101711.88
2023-03-02T20:56:06.277Z,101715.75
2023-03-02T20:58:41.181Z,101710.75
2023-03-02T21:01:10.535Z,101716.59
2023-03-02T21:03:37.858Z,101706.09
2023-03-02T21:06:05.339Z,101710.50
2023-03-02T21:08:34.167Z,101712.19
2023-03-02T21:11:00.943Z,101704.41
2023-03-02T21:13:37.276Z,101717.69
2023-03-02T21:16:07.478Z,101720.97
2023-03-02T21:18:35.905Z,101710.44
2023-03-02T21:21:03.166Z,101705.22
2023-03-02T21:23:30.350Z,101704.94
2023-03-02T21:25:58.514Z,101715.97
2023-03-02T21:28:26.593Z,101715.16
2023-03-02T21:30:53.343Z,101706.34
2023-03-02T21:33:20.006Z,101708.81
2023-03-02T21:35:47.217Z,101696.63
2023-03-02T21:38:14.907Z,101696.63
2023-03-02T21:40:46.392Z,101697.19
2023-03-02T21:43:13.734Z,101697.72
2023-03-02T21:45:43.048Z,101703.25
2023-03-02T21:48:13.658Z,101700.47
2023-03-02T21:50:45.885Z,101693.81
2023-03-02T21:53:12.266Z,101701.03
2023-03-02T21:55:39.922Z,101697.72
2023-03-02T21:58:06.311Z,101696.59
2023-03-02T22:00:35.780Z,101693.00
2023-03-02T22:03:02.736Z,101692.75
2023-03-02T22:05:30.502Z,101690.50
2023-03-02T22:07:59.274Z,101692.44
2023-03-02T22:10:55.233Z,101691.31
2023-03-02T22:13:27.071Z,101699.88
2023-03-02T22:16:18.170Z,101699.34
2023-03-02T22:18:48.855Z,101693.22
2023-03-02T22:21:38.153Z,101700.69
2023-03-02T22:24:11.630Z,101703.16
2023-03-02T22:26:47.619Z,101709.28
2023-03-02T22:29:37.574Z,101702.38
2023-03-02T22:32:17.903Z,101692.19
2023-03-02T22:34:46.551Z,101692.50
2023-03-02T22:37:22.770Z,101706.88
2023-03-02T22:39:53.364Z,101703.88
2023-03-02T22:42:22.496Z,101696.69
2023-03-02T22:44:59.572Z,101702.81
2023-03-02T22:47:28.047Z,101715.25
2023-03-02T22:50:18.963Z,101711.41
2023-03-02T22:52:46.986Z,101719.69
2023-03-02T22:55:39.351Z,101724.13
2023-03-02T22:58:30.551Z,101715.31
2023-03-02T23:01:03.039Z,101721.69
2023-03-02T23:03:44.785Z,101724.19
2023-03-02T23:06:25.509Z,101730.81
2023-03-02T23:08:56.422Z,101718.66
2023-03-02T23:11:27.338Z,101712.31
2023-03-02T23:13:54.556Z,101713.13
2023-03-02T23:16:30.003Z,101715.88
2023-03-02T23:18:59.722Z,101720.31
2023-03-02T23:21:48.054Z,101705.41
2023-03-02T23:24:20.584Z,101716.16
2023-03-02T23:26:48.031Z,101716.72
2023-03-02T23:29:20.251Z,101710.59
2023-03-02T23:31:47.109Z,101709.19
2023-03-02T23:34:17.014Z,101718.84
2023-03-02T23:36:44.441Z,101719.09
2023-03-02T23:39:11.535Z,101709.69
2023-03-02T23:41:39.579Z,101717.72
2023-03-02T23:44:08.860Z,101707.75
2023-03-02T23:46:43.803Z,101713.28
2023-03-02T23:49:12.343Z,101707.75
2023-03-02T23:51:41.115Z,101716.84
2023-03-02T23:54:07.992Z,101720.47
2023-03-02T23:56:34.474Z,101722.13
2023-03-02T23:59:02.732Z,101716.59
